sensor_id;sensor_type;location;lat;lon;timestamp;pressure;altitude;pressure_sealevel;temperature;humidity
19761;BME280;10039;42.632;23.408;2023-07-24T00:02:29;95208.25;;;23.31;54.43
19761;BME280;10039;42.632;23.408;2023-07-24T00:04:54;95194.91;;;23.39;53.92
19761;BME280;10039;42.632;23.408;2023-07-24T00:07:20;95176.03;;;23.30;54.30
19761;BME280;10039;42.632;23.408;2023-07-24T00:09:46;95205.09;;;23.44;54.31
19761;BME280;10039;42.632;23.408;2023-07-24T00:12:11;95191.44;;;23.38;54.38
19761;BME280;10039;42.632;23.408;2023-07-24T00:14:37;95186.66;;;23.28;54.46
19761;BME280;10039;42.632;23.408;2023-07-24T00:17:02;95170.75;;;23.15;54.73
19761;BME280;10039;42.632;23.408;2023-07-24T00:19:28;95188.59;;;23.16;54.68
19761;BME280;10039;42.632;23.408;2023-07-24T00:21:54;95194.63;;;23.31;54.54
19761;BME280;10039;42.632;23.408;2023-07-24T00:24:20;95187.34;;;23.17;55.58
19761;BME280;10039;42.632;23.408;2023-07-24T00:26:45;95187.16;;;22.90;55.79
19761;BME280;10039;42.632;23.408;2023-07-24T00:29:11;95193.56;;;22.87;55.99
19761;BME280;10039;42.632;23.408;2023-07-24T00:31:37;95182.13;;;22.77;56.33
19761;BME280;10039;42.632;23.408;2023-07-24T00:34:02;95178.81;;;22.68;55.70
19761;BME280;10039;42.632;23.408;2023-07-24T00:36:28;95160.81;;;22.76;55.47
19761;BME280;10039;42.632;23.408;2023-07-24T00:38:54;95152.47;;;22.85;54.87
19761;BME280;10039;42.632;23.408;2023-07-24T00:41:22;95150.28;;;22.89;54.89
19761;BME280;10039;42.632;23.408;2023-07-24T00:43:47;95158.84;;;23.07;54.58
19761;BME280;10039;42.632;23.408;2023-07-24T00:46:13;95134.22;;;22.96;54.87
19761;BME280;10039;42.632;23.408;2023-07-24T00:48:40;95187.66;;;23.25;55.00
19761;BME280;10039;42.632;23.408;2023-07-24T00:51:06;95193.00;;;23.08;55.98
19761;BME280;10039;42.632;23.408;2023-07-24T00:53:32;95200.56;;;22.99;56.06
19761;BME280;10039;42.632;23.408;2023-07-24T00:55:57;95156.97;;;22.57;57.04
19761;BME280;10039;42.632;23.408;2023-07-24T00:58:23;95197.53;;;22.86;57.06
19761;BME280;10039;42.632;23.408;2023-07-24T01:00:50;95208.47;;;22.97;56.61
19761;BME280;10039;42.632;23.408;2023-07-24T01:03:16;95165.78;;;22.77;56.24
19761;BME280;10039;42.632;23.408;2023-07-24T01:05:41;95190.53;;;23.10;56.55
19761;BME280;10039;42.632;23.408;2023-07-24T01:08:07;95144.56;;;22.87;55.96
19761;BME280;10039;42.632;23.408;2023-07-24T01:10:38;95151.28;;;22.91;55.94
19761;BME280;10039;42.632;23.408;2023-07-24T01:13:16;95185.16;;;23.21;56.26
19761;BME280;10039;42.632;23.408;2023-07-24T01:15:54;95181.88;;;23.12;56.21
19761;BME280;10039;42.632;23.408;2023-07-24T01:18:24;95159.34;;;22.80;56.64
19761;BME280;10039;42.632;23.408;2023-07-24T01:20:57;95195.09;;;22.93;56.38
19761;BME280;10039;42.632;23.408;2023-07-24T01:23:45;95187.91;;;22.90;55.96
19761;BME280;10039;42.632;23.408;2023-07-24T01:26:16;95188.88;;;22.87;56.58
19761;BME280;10039;42.632;23.408;2023-07-24T01:28:42;95194.53;;;22.84;56.38
19761;BME280;10039;42.632;23.408;2023-07-24T01:31:08;95173.59;;;22.65;56.51
19761;BME280;10039;42.632;23.408;2023-07-24T01:33:34;95161.25;;;22.69;56.74
19761;BME280;10039;42.632;23.408;2023-07-24T01:36:02;95180.97;;;22.89;55.94
19761;BME280;10039;42.632;23.408;2023-07-24T01:38:31;95187.63;;;22.88;56.30
19761;BME280;10039;42.632;23.408;2023-07-24T01:40:57;95167.63;;;22.61;56.89
19761;BME280;10039;42.632;23.408;2023-07-24T01:43:24;95163.59;;;22.51;56.47
19761;BME280;10039;42.632;23.408;2023-07-24T01:45:58;95143.31;;;22.52;56.22
19761;BME280;10039;42.632;23.408;2023-07-24T01:48:27;95146.13;;;22.63;55.43
19761;BME280;10039;42.632;23.408;2023-07-24T01:50:55;95185.66;;;22.89;56.10
19761;BME280;10039;42.632;23.408;2023-07-24T01:53:21;95179.59;;;22.74;55.19
19761;BME280;10039;42.632;23.408;2023-07-24T01:55:47;95164.66;;;22.59;56.06
19761;BME280;10039;42.632;23.408;2023-07-24T01:58:14;95196.91;;;22.71;57.08
19761;BME280;10039;42.632;23.408;2023-07-24T02:00:43;95207.59;;;22.74;56.59
19761;BME280;10039;42.632;23.408;2023-07-24T02:03:14;95168.13;;;22.59;56.60
19761;BME280;10039;42.632;23.408;2023-07-24T02:05:48;95198.94;;;22.76;57.34
19761;BME280;10039;42.632;23.408;2023-07-24T02:08:14;95172.69;;;22.42;58.02
19761;BME280;10039;42.632;23.408;2023-07-24T02:10:42;95156.84;;;22.41;57.80
19761;BME280;10039;42.632;23.408;2023-07-24T02:13:08;95185.94;;;22.60;58.35
19761;BME280;10039;42.632;23.408;2023-07-24T02:15:35;95163.13;;;22.52;58.00
19761;BME280;10039;42.632;23.408;2023-07-24T02:18:01;95187.47;;;22.67;57.78
19761;BME280;10039;42.632;23.408;2023-07-24T02:20:27;95158.88;;;22.46;57.69
19761;BME280;10039;42.632;23.408;2023-07-24T02:22:52;95180.72;;;22.57;57.42
19761;BME280;10039;42.632;23.408;2023-07-24T02:25:18;95165.22;;;22.37;57.21
19761;BME280;10039;42.632;23.408;2023-07-24T02:27:46;95158.19;;;22.31;57.24
19761;BME280;10039;42.632;23.408;2023-07-24T02:30:15;95160.72;;;22.09;57.96
19761;BME280;10039;42.632;23.408;2023-07-24T02:32:40;95172.28;;;22.04;57.99
19761;BME280;10039;42.632;23.408;2023-07-24T02:35:06;95184.66;;;22.05;58.04
19761;BME280;10039;42.632;23.408;2023-07-24T02:37:32;95166.69;;;21.87;58.16
19761;BME280;10039;42.632;23.408;2023-07-24T02:39:58;95148.06;;;21.80;58.38
19761;BME280;10039;42.632;23.408;2023-07-24T02:42:24;95143.31;;;21.75;57.99
19761;BME280;10039;42.632;23.408;2023-07-24T02:44:50;95166.97;;;21.89;58.42
19761;BME280;10039;42.632;23.408;2023-07-24T02:47:15;95184.22;;;21.86;58.97
19761;BME280;10039;42.632;23.408;2023-07-24T02:52:06;95165.28;;;21.72;58.39
19761;BME280;10039;42.632;23.408;2023-07-24T02:54:32;95162.56;;;21.72;58.15
19761;BME280;10039;42.632;23.408;2023-07-24T02:56:58;95189.66;;;21.86;58.89
19761;BME280;10039;42.632;23.408;2023-07-24T02:59:23;95154.41;;;21.72;58.79
19761;BME280;10039;42.632;23.408;2023-07-24T03:01:49;95181.69;;;21.83;59.15
19761;BME280;10039;42.632;23.408;2023-07-24T03:04:15;95148.84;;;21.61;58.76
19761;BME280;10039;42.632;23.408;2023-07-24T03:06:40;95170.72;;;21.72;58.29
19761;BME280;10039;42.632;23.408;2023-07-24T03:09:06;95183.34;;;21.75;59.89
19761;BME280;10039;42.632;23.408;2023-07-24T03:11:32;95160.09;;;21.54;59.85
19761;BME280;10039;42.632;23.408;2023-07-24T03:13:58;95164.31;;;21.55;60.19
19761;BME280;10039;42.632;23.408;2023-07-24T03:16:23;95178.06;;;21.66;60.75
19761;BME280;10039;42.632;23.408;2023-07-24T03:18:49;95154.66;;;21.54;61.03
19761;BME280;10039;42.632;23.408;2023-07-24T03:21:15;95171.41;;;21.67;61.02
19761;BME280;10039;42.632;23.408;2023-07-24T03:23:40;95168.53;;;21.76;60.92
19761;BME280;10039;42.632;23.408;2023-07-24T03:26:06;95167.03;;;21.75;61.36
19761;BME280;10039;42.632;23.408;2023-07-24T03:28:32;95179.88;;;21.94;61.65
19761;BME280;10039;42.632;23.408;2023-07-24T03:30:58;95188.69;;;21.89;61.65
19761;BME280;10039;42.632;23.408;2023-07-24T03:33:24;95140.06;;;21.71;61.07
19761;BME280;10039;42.632;23.408;2023-07-24T03:35:50;95137.53;;;21.88;60.43
19761;BME280;10039;42.632;23.408;2023-07-24T03:38:15;95187.75;;;22.18;60.91
19761;BME280;10039;42.632;23.408;2023-07-24T03:40:41;95167.59;;;22.04;60.87
19761;BME280;10039;42.632;23.408;2023-07-24T03:43:10;95171.53;;;22.03;60.57
19761;BME280;10039;42.632;23.408;2023-07-24T03:45:35;95159.38;;;21.99;60.77
19761;BME280;10039;42.632;23.408;2023-07-24T03:48:01;95151.19;;;21.73;61.77
19761;BME280;10039;42.632;23.408;2023-07-24T03:50:29;95194.13;;;21.89;61.77
19761;BME280;10039;42.632;23.408;2023-07-24T03:52:54;95161.03;;;21.65;61.87
19761;BME280;10039;42.632;23.408;2023-07-24T03:55:20;95196.34;;;21.51;63.94
19761;BME280;10039;42.632;23.408;2023-07-24T03:57:46;95157.97;;;21.04;64.22
19761;BME280;10039;42.632;23.408;2023-07-24T04:00:12;95164.97;;;21.10;63.76
19761;BME280;10039;42.632;23.408;2023-07-24T04:02:38;95187.66;;;21.27;63.63
19761;BME280;10039;42.632;23.408;2023-07-24T04:05:05;95204.78;;;21.53;62.79
19761;BME280;10039;42.632;23.408;2023-07-24T04:07:31;95202.50;;;21.66;62.55
19761;BME280;10039;42.632;23.408;2023-07-24T04:09:56;95181.19;;;21.59;62.41
19761;BME280;10039;42.632;23.408;2023-07-24T04:12:22;95187.53;;;21.56;62.88
19761;BME280;10039;42.632;23.408;2023-07-24T04:14:48;95176.56;;;21.45;62.86
19761;BME280;10039;42.632;23.408;2023-07-24T04:17:14;95190.53;;;21.58;63.80
19761;BME280;10039;42.632;23.408;2023-07-24T04:19:40;95206.44;;;21.65;63.51
19761;BME280;10039;42.632;23.408;2023-07-24T04:22:06;95211.59;;;21.83;62.32
19761;BME280;10039;42.632;23.408;2023-07-24T04:24:32;95197.81;;;21.86;63.43
19761;BME280;10039;42.632;23.408;2023-07-24T04:26:58;95188.31;;;21.76;62.65
19761;BME280;10039;42.632;23.408;2023-07-24T04:29:23;95170.22;;;21.73;61.95
19761;BME280;10039;42.632;23.408;2023-07-24T04:31:51;95167.09;;;21.80;61.70
19761;BME280;10039;42.632;23.408;2023-07-24T04:34:19;95205.88;;;22.01;60.47
19761;BME280;10039;42.632;23.408;2023-07-24T04:36:48;95202.03;;;21.87;59.95
19761;BME280;10039;42.632;23.408;2023-07-24T04:39:13;95209.16;;;21.85;60.35
19761;BME280;10039;42.632;23.408;2023-07-24T04:41:42;95168.13;;;21.63;59.83
19761;BME280;10039;42.632;23.408;2023-07-24T04:44:08;95180.56;;;21.69;59.98
19761;BME280;10039;42.632;23.408;2023-07-24T04:46:33;95196.03;;;21.83;59.46
19761;BME280;10039;42.632;23.408;2023-07-24T04:48:59;95199.75;;;22.06;59.21
19761;BME280;10039;42.632;23.408;2023-07-24T04:51:25;95202.56;;;22.17;58.73
19761;BME280;10039;42.632;23.408;2023-07-24T04:53:51;95159.28;;;22.13;58.17
19761;BME280;10039;42.632;23.408;2023-07-24T04:56:17;95183.91;;;22.30;57.70
19761;BME280;10039;42.632;23.408;2023-07-24T04:58:43;95170.00;;;22.22;57.96
19761;BME280;10039;42.632;23.408;2023-07-24T05:01:08;95213.63;;;22.59;57.20
19761;BME280;10039;42.632;23.408;2023-07-24T05:03:34;95191.06;;;22.53;56.89
19761;BME280;10039;42.632;23.408;2023-07-24T05:06:00;95186.22;;;22.62;56.67
19761;BME280;10039;42.632;23.408;2023-07-24T05:08:26;95185.09;;;22.79;56.32
19761;BME280;10039;42.632;23.408;2023-07-24T05:10:58;95207.22;;;22.92;56.90
19761;BME280;10039;42.632;23.408;2023-07-24T05:13:25;95181.41;;;22.82;56.04
19761;BME280;10039;42.632;23.408;2023-07-24T05:15:51;95203.34;;;23.04;56.75
19761;BME280;10039;42.632;23.408;2023-07-24T05:18:17;95212.94;;;23.31;56.54
19761;BME280;10039;42.632;23.408;2023-07-24T05:20:45;95184.09;;;23.08;57.79
19761;BME280;10039;42.632;23.408;2023-07-24T05:23:11;95174.16;;;22.74;58.79
19761;BME280;10039;42.632;23.408;2023-07-24T05:25:37;95212.66;;;23.23;58.01
19761;BME280;10039;42.632;23.408;2023-07-24T05:28:03;95171.78;;;23.23;57.61
19761;BME280;10039;42.632;23.408;2023-07-24T05:30:28;95196.97;;;23.55;58.05
19761;BME280;10039;42.632;23.408;2023-07-24T05:32:54;95180.31;;;23.47;57.16
19761;BME280;10039;42.632;23.408;2023-07-24T05:35:20;95193.56;;;23.65;57.85
19761;BME280;10039;42.632;23.408;2023-07-24T05:37:45;95186.59;;;23.64;57.51
19761;BME280;10039;42.632;23.408;2023-07-24T05:40:12;95214.16;;;23.77;57.16
19761;BME280;10039;42.632;23.408;2023-07-24T05:42:37;95202.59;;;23.93;55.82
19761;BME280;10039;42.632;23.408;2023-07-24T05:45:07;95181.56;;;24.10;55.77
19761;BME280;10039;42.632;23.408;2023-07-24T05:47:34;95170.91;;;24.06;55.69
19761;BME280;10039;42.632;23.408;2023-07-24T05:50:00;95168.91;;;23.96;55.65
19761;BME280;10039;42.632;23.408;2023-07-24T05:52:26;95156.72;;;23.86;55.55
19761;BME280;10039;42.632;23.408;2023-07-24T05:54:54;95154.78;;;24.14;54.75
19761;BME280;10039;42.632;23.408;2023-07-24T05:57:20;95184.06;;;24.19;55.07
19761;BME280;10039;42.632;23.408;2023-07-24T05:59:48;95177.38;;;24.14;55.55
19761;BME280;10039;42.632;23.408;2023-07-24T06:02:15;95164.75;;;24.44;55.23
19761;BME280;10039;42.632;23.408;2023-07-24T06:04:41;95175.69;;;24.83;54.99
19761;BME280;10039;42.632;23.408;2023-07-24T06:07:06;95148.13;;;24.86;53.95
19761;BME280;10039;42.632;23.408;2023-07-24T06:09:32;95149.09;;;24.94;53.63
19761;BME280;10039;42.632;23.408;2023-07-24T06:11:57;95162.75;;;25.21;53.52
19761;BME280;10039;42.632;23.408;2023-07-24T06:14:23;95157.03;;;25.25;53.70
19761;BME280;10039;42.632;23.408;2023-07-24T06:16:48;95163.78;;;24.86;54.29
19761;BME280;10039;42.632;23.408;2023-07-24T06:19:14;95153.28;;;25.11;53.94
19761;BME280;10039;42.632;23.408;2023-07-24T06:21:40;95119.25;;;25.12;54.09
19761;BME280;10039;42.632;23.408;2023-07-24T06:24:06;95168.34;;;25.62;52.99
19761;BME280;10039;42.632;23.408;2023-07-24T06:26:37;95166.09;;;25.66;53.20
19761;BME280;10039;42.632;23.408;2023-07-24T06:29:02;95176.72;;;25.86;52.06
19761;BME280;10039;42.632;23.408;2023-07-24T06:31:28;95141.81;;;25.97;52.53
19761;BME280;10039;42.632;23.408;2023-07-24T06:33:54;95164.50;;;26.32;51.71
19761;BME280;10039;42.632;23.408;2023-07-24T06:36:19;95150.53;;;26.36;51.32
19761;BME280;10039;42.632;23.408;2023-07-24T06:38:45;95167.06;;;26.89;51.03
19761;BME280;10039;42.632;23.408;2023-07-24T06:41:12;95139.19;;;27.15;49.55
19761;BME280;10039;42.632;23.408;2023-07-24T06:43:38;95162.78;;;27.23;48.13
19761;BME280;10039;42.632;23.408;2023-07-24T06:46:04;95170.91;;;27.05;48.65
19761;BME280;10039;42.632;23.408;2023-07-24T06:48:29;95126.50;;;26.58;48.79
19761;BME280;10039;42.632;23.408;2023-07-24T06:50:58;95121.09;;;26.77;49.24
19761;BME280;10039;42.632;23.408;2023-07-24T06:53:24;95139.03;;;27.02;49.09
19761;BME280;10039;42.632;23.408;2023-07-24T06:55:52;95132.81;;;26.48;49.80
19761;BME280;10039;42.632;23.408;2023-07-24T06:58:18;95131.53;;;26.78;50.12
19761;BME280;10039;42.632;23.408;2023-07-24T07:00:44;95164.63;;;27.57;48.86
19761;BME280;10039;42.632;23.408;2023-07-24T07:03:09;95157.50;;;27.91;48.42
19761;BME280;10039;42.632;23.408;2023-07-24T07:05:35;95124.66;;;27.67;48.16
19761;BME280;10039;42.632;23.408;2023-07-24T07:08:00;95165.59;;;28.02;47.21
19761;BME280;10039;42.632;23.408;2023-07-24T07:10:26;95155.09;;;28.06;47.67
19761;BME280;10039;42.632;23.408;2023-07-24T07:12:52;95120.97;;;28.02;46.86
19761;BME280;10039;42.632;23.408;2023-07-24T07:15:17;95138.84;;;28.27;46.84
19761;BME280;10039;42.632;23.408;2023-07-24T07:17:43;95141.84;;;28.42;45.67
19761;BME280;10039;42.632;23.408;2023-07-24T07:20:09;95164.22;;;28.64;45.12
19761;BME280;10039;42.632;23.408;2023-07-24T07:22:34;95133.78;;;28.62;45.67
19761;BME280;10039;42.632;23.408;2023-07-24T07:25:00;95122.81;;;28.31;45.57
19761;BME280;10039;42.632;23.408;2023-07-24T07:27:25;95154.56;;;28.76;45.17
19761;BME280;10039;42.632;23.408;2023-07-24T07:29:51;95150.81;;;28.92;44.49
19761;BME280;10039;42.632;23.408;2023-07-24T07:32:17;95130.59;;;28.08;45.34
19761;BME280;10039;42.632;23.408;2023-07-24T07:34:42;95154.50;;;28.63;46.32
19761;BME280;10039;42.632;23.408;2023-07-24T07:37:08;95129.31;;;28.46;45.96
19761;BME280;10039;42.632;23.408;2023-07-24T07:39:34;95141.59;;;28.89;44.85
19761;BME280;10039;42.632;23.408;2023-07-24T07:42:02;95115.16;;;28.86;46.52
19761;BME280;10039;42.632;23.408;2023-07-24T07:44:28;95133.38;;;29.15;45.38
19761;BME280;10039;42.632;23.408;2023-07-24T07:46:53;95140.78;;;29.33;44.48
19761;BME280;10039;42.632;23.408;2023-07-24T07:49:22;95122.16;;;29.39;44.25
19761;BME280;10039;42.632;23.408;2023-07-24T07:51:49;95103.03;;;29.34;44.15
19761;BME280;10039;42.632;23.408;2023-07-24T07:54:18;95141.44;;;29.78;44.91
19761;BME280;10039;42.632;23.408;2023-07-24T07:56:44;95121.81;;;29.94;43.88
19761;BME280;10039;42.632;23.408;2023-07-24T07:59:10;95136.53;;;29.97;42.26
19761;BME280;10039;42.632;23.408;2023-07-24T08:01:39;95113.25;;;29.85;41.75
19761;BME280;10039;42.632;23.408;2023-07-24T08:04:05;95145.56;;;29.84;42.51
19761;BME280;10039;42.632;23.408;2023-07-24T08:06:30;95121.75;;;30.20;42.35
19761;BME280;10039;42.632;23.408;2023-07-24T08:08:56;95108.84;;;30.49;41.50
19761;BME280;10039;42.632;23.408;2023-07-24T08:11:25;95104.03;;;30.62;40.11
19761;BME280;10039;42.632;23.408;2023-07-24T08:13:53;95130.09;;;31.02;39.97
19761;BME280;10039;42.632;23.408;2023-07-24T08:16:19;95122.34;;;31.21;39.68
19761;BME280;10039;42.632;23.408;2023-07-24T08:18:47;95126.94;;;31.54;38.95
19761;BME280;10039;42.632;23.408;2023-07-24T08:21:14;95121.91;;;31.45;38.01
19761;BME280;10039;42.632;23.408;2023-07-24T08:23:43;95098.59;;;30.97;40.01
19761;BME280;10039;42.632;23.408;2023-07-24T08:26:08;95090.50;;;31.20;39.55
19761;BME280;10039;42.632;23.408;2023-07-24T08:28:34;95089.59;;;31.53;39.18
19761;BME280;10039;42.632;23.408;2023-07-24T08:31:01;95116.88;;;31.99;37.28
19761;BME280;10039;42.632;23.408;2023-07-24T08:33:28;95106.19;;;31.96;36.26
19761;BME280;10039;42.632;23.408;2023-07-24T08:36:01;95073.63;;;32.02;37.35
19761;BME280;10039;42.632;23.408;2023-07-24T08:38:27;95101.75;;;31.93;37.07
19761;BME280;10039;42.632;23.408;2023-07-24T08:41:10;95088.63;;;32.51;36.43
19761;BME280;10039;42.632;23.408;2023-07-24T08:43:38;95107.88;;;33.09;36.10
19761;BME280;10039;42.632;23.408;2023-07-24T08:46:05;95082.00;;;32.46;35.25
19761;BME280;10039;42.632;23.408;2023-07-24T08:48:34;95095.69;;;33.04;35.03
19761;BME280;10039;42.632;23.408;2023-07-24T08:51:06;95092.88;;;33.49;34.24
19761;BME280;10039;42.632;23.408;2023-07-24T08:53:37;95068.78;;;32.97;33.95
19761;BME280;10039;42.632;23.408;2023-07-24T08:56:03;95092.00;;;33.24;33.92
19761;BME280;10039;42.632;23.408;2023-07-24T08:58:29;95070.94;;;33.06;34.51
19761;BME280;10039;42.632;23.408;2023-07-24T09:00:57;95083.69;;;33.24;35.21
19761;BME280;10039;42.632;23.408;2023-07-24T09:03:23;95065.81;;;32.95;33.96
19761;BME280;10039;42.632;23.408;2023-07-24T09:06:12;95075.69;;;33.58;34.39
19761;BME280;10039;42.632;23.408;2023-07-24T09:08:48;95073.41;;;33.79;33.17
19761;BME280;10039;42.632;23.408;2023-07-24T09:11:18;95071.38;;;33.72;33.28
19761;BME280;10039;42.632;23.408;2023-07-24T09:13:44;95045.28;;;33.82;31.87
19761;BME280;10039;42.632;23.408;2023-07-24T09:16:23;95091.94;;;34.01;32.50
19761;BME280;10039;42.632;23.408;2023-07-24T09:18:50;95083.63;;;34.01;31.25
19761;BME280;10039;42.632;23.408;2023-07-24T09:21:29;95086.59;;;34.03;32.35
19761;BME280;10039;42.632;23.408;2023-07-24T09:23:55;95087.38;;;33.88;31.61
19761;BME280;10039;42.632;23.408;2023-07-24T09:26:21;95087.28;;;34.11;32.97
19761;BME280;10039;42.632;23.408;2023-07-24T09:28:53;95045.19;;;34.05;33.03
19761;BME280;10039;42.632;23.408;2023-07-24T09:31:34;95039.25;;;34.16;32.66
19761;BME280;10039;42.632;23.408;2023-07-24T09:33:59;95054.78;;;34.04;32.76
19761;BME280;10039;42.632;23.408;2023-07-24T09:36:25;95062.84;;;33.85;32.20
19761;BME280;10039;42.632;23.408;2023-07-24T09:39:00;95018.38;;;33.75;32.76
19761;BME280;10039;42.632;23.408;2023-07-24T09:41:29;95047.25;;;33.97;32.54
19761;BME280;10039;42.632;23.408;2023-07-24T09:43:58;95013.75;;;33.78;32.93
19761;BME280;10039;42.632;23.408;2023-07-24T09:46:24;95025.25;;;34.31;32.68
19761;BME280;10039;42.632;23.408;2023-07-24T09:48:50;95033.78;;;34.81;31.85
19761;BME280;10039;42.632;23.408;2023-07-24T09:51:19;95001.78;;;34.80;32.22
19761;BME280;10039;42.632;23.408;2023-07-24T09:54:15;95038.56;;;35.22;33.19
19761;BME280;10039;42.632;23.408;2023-07-24T09:56:47;94993.22;;;35.03;31.66
19761;BME280;10039;42.632;23.408;2023-07-24T09:59:13;95025.00;;;35.26;31.80
19761;BME280;10039;42.632;23.408;2023-07-24T10:01:39;95022.03;;;35.07;31.15
19761;BME280;10039;42.632;23.408;2023-07-24T10:04:07;94999.94;;;35.17;31.55
19761;BME280;10039;42.632;23.408;2023-07-24T10:06:35;95006.63;;;35.65;32.02
19761;BME280;10039;42.632;23.408;2023-07-24T10:09:02;95020.47;;;36.25;31.39
19761;BME280;10039;42.632;23.408;2023-07-24T10:11:28;94981.09;;;35.76;30.56
19761;BME280;10039;42.632;23.408;2023-07-24T10:13:54;94979.06;;;35.76;30.71
19761;BME280;10039;42.632;23.408;2023-07-24T10:16:20;94985.09;;;35.82;30.94
19761;BME280;10039;42.632;23.408;2023-07-24T10:18:46;95007.78;;;35.28;31.29
19761;BME280;10039;42.632;23.408;2023-07-24T10:21:13;94968.91;;;35.11;30.56
19761;BME280;10039;42.632;23.408;2023-07-24T10:23:43;94953.47;;;35.17;30.99
19761;BME280;10039;42.632;23.408;2023-07-24T10:26:09;94956.00;;;35.23;31.19
19761;BME280;10039;42.632;23.408;2023-07-24T10:28:37;94942.44;;;34.93;30.99
19761;BME280;10039;42.632;23.408;2023-07-24T10:31:06;94959.34;;;35.21;30.98
19761;BME280;10039;42.632;23.408;2023-07-24T10:33:35;94963.41;;;35.37;31.12
19761;BME280;10039;42.632;23.408;2023-07-24T10:36:07;94965.47;;;35.80;30.28
19761;BME280;10039;42.632;23.408;2023-07-24T10:38:40;94968.31;;;35.89;30.58
19761;BME280;10039;42.632;23.408;2023-07-24T10:41:10;94965.97;;;36.22;29.73
19761;BME280;10039;42.632;23.408;2023-07-24T10:43:50;94941.13;;;35.97;30.80
19761;BME280;10039;42.632;23.408;2023-07-24T10:46:17;94972.25;;;36.13;30.97
19761;BME280;10039;42.632;23.408;2023-07-24T10:48:47;94934.81;;;36.23;30.33
19761;BME280;10039;42.632;23.408;2023-07-24T10:51:13;94950.84;;;36.42;30.00
19761;BME280;10039;42.632;23.408;2023-07-24T10:53:46;94920.44;;;36.63;29.76
19761;BME280;10039;42.632;23.408;2023-07-24T10:56:12;94955.41;;;37.11;29.87
19761;BME280;10039;42.632;23.408;2023-07-24T10:58:39;94917.88;;;37.12;29.89
19761;BME280;10039;42.632;23.408;2023-07-24T11:01:06;94949.97;;;37.51;30.09
19761;BME280;10039;42.632;23.408;2023-07-24T11:03:35;94930.91;;;37.19;29.49
19761;BME280;10039;42.632;23.408;2023-07-24T11:06:02;94921.09;;;37.08;29.94
19761;BME280;10039;42.632;23.408;2023-07-24T11:08:28;94923.13;;;37.08;29.91
19761;BME280;10039;42.632;23.408;2023-07-24T11:10:56;94935.81;;;36.54;29.62
19761;BME280;10039;42.632;23.408;2023-07-24T11:13:26;94931.13;;;36.57;30.13
19761;BME280;10039;42.632;23.408;2023-07-24T11:15:53;94910.25;;;36.39;29.62
19761;BME280;10039;42.632;23.408;2023-07-24T11:18:23;94884.63;;;36.31;30.21
19761;BME280;10039;42.632;23.408;2023-07-24T11:20:53;94914.50;;;36.40;31.32
19761;BME280;10039;42.632;23.408;2023-07-24T11:23:20;94908.78;;;36.28;29.86
19761;BME280;10039;42.632;23.408;2023-07-24T11:25:55;94878.84;;;35.74;29.52
19761;BME280;10039;42.632;23.408;2023-07-24T11:28:21;94901.00;;;35.38;30.02
19761;BME280;10039;42.632;23.408;2023-07-24T11:30:49;94920.38;;;35.55;30.43
19761;BME280;10039;42.632;23.408;2023-07-24T11:33:16;94887.13;;;35.04;30.32
19761;BME280;10039;42.632;23.408;2023-07-24T11:35:42;94884.31;;;35.38;31.55
19761;BME280;10039;42.632;23.408;2023-07-24T11:38:29;94917.41;;;35.44;29.86
19761;BME280;10039;42.632;23.408;2023-07-24T11:41:04;94894.41;;;35.17;29.95
19761;BME280;10039;42.632;23.408;2023-07-24T11:43:35;94868.38;;;34.95;30.40
19761;BME280;10039;42.632;23.408;2023-07-24T11:46:11;94851.66;;;34.86;29.89
19761;BME280;10039;42.632;23.408;2023-07-24T11:48:41;94877.59;;;35.15;31.47
19761;BME280;10039;42.632;23.408;2023-07-24T11:51:08;94864.47;;;35.15;31.72
19761;BME280;10039;42.632;23.408;2023-07-24T11:56:37;94855.69;;;35.19;29.96
19761;BME280;10039;42.632;23.408;2023-07-24T11:59:13;94892.94;;;35.59;32.37
19761;BME280;10039;42.632;23.408;2023-07-24T12:01:46;94890.16;;;35.59;31.74
19761;BME280;10039;42.632;23.408;2023-07-24T12:04:18;94862.03;;;35.55;31.69
19761;BME280;10039;42.632;23.408;2023-07-24T12:06:51;94871.50;;;35.69;30.54
19761;BME280;10039;42.632;23.408;2023-07-24T12:09:29;94887.81;;;35.82;32.49
19761;BME280;10039;42.632;23.408;2023-07-24T12:12:05;94866.50;;;35.41;29.58
19761;BME280;10039;42.632;23.408;2023-07-24T12:14:35;94851.78;;;35.48;30.57
19761;BME280;10039;42.632;23.408;2023-07-24T12:17:02;94888.06;;;35.77;30.60
19761;BME280;10039;42.632;23.408;2023-07-24T12:19:35;94864.78;;;35.46;31.67
19761;BME280;10039;42.632;23.408;2023-07-24T12:22:01;94873.94;;;35.39;31.56
19761;BME280;10039;42.632;23.408;2023-07-24T12:24:30;94832.38;;;35.31;31.42
19761;BME280;10039;42.632;23.408;2023-07-24T12:26:55;94850.19;;;35.55;30.31
19761;BME280;10039;42.632;23.408;2023-07-24T12:29:22;94850.09;;;35.62;30.71
19761;BME280;10039;42.632;23.408;2023-07-24T12:31:52;94856.97;;;35.97;31.37
19761;BME280;10039;42.632;23.408;2023-07-24T12:34:20;94874.94;;;36.22;30.01
19761;BME280;10039;42.632;23.408;2023-07-24T12:36:49;94850.75;;;35.79;30.89
19761;BME280;10039;42.632;23.408;2023-07-24T12:39:23;94840.06;;;35.67;30.67
19761;BME280;10039;42.632;23.408;2023-07-24T12:42:08;94825.56;;;35.42;30.19
19761;BME280;10039;42.632;23.408;2023-07-24T12:44:39;94816.81;;;35.45;30.70
19761;BME280;10039;42.632;23.408;2023-07-24T12:47:14;94837.53;;;35.61;31.40
19761;BME280;10039;42.632;23.408;2023-07-24T12:49:40;94845.19;;;35.70;31.26
19761;BME280;10039;42.632;23.408;2023-07-24T12:52:06;94816.75;;;35.62;30.59
19761;BME280;10039;42.632;23.408;2023-07-24T12:54:47;94818.75;;;35.52;29.71
19761;BME280;10039;42.632;23.408;2023-07-24T12:57:22;94812.13;;;35.48;29.51
19761;BME280;10039;42.632;23.408;2023-07-24T12:59:55;94809.53;;;35.23;29.83